createdAt,value
2022-08-03T00:01:30.532Z,40.70
2022-08-03T00:03:57.481Z,40.90
2022-08-03T00:06:24.437Z,41.00
2022-08-03T00:08:51.464Z,41.10
2022-08-03T00:11:18.870Z,41.10
2022-08-03T00:13:46.006Z,41.20
2022-08-03T00:16:13.497Z,41.30
2022-08-03T00:18:41.132Z,41.40
2022-08-03T00:21:08.137Z,41.40
2022-08-03T00:23:52.557Z,41.40
2022-08-03T00:26:21.357Z,41.40
2022-08-03T00:28:49.295Z,41.40
2022-08-03T00:31:16.517Z,41.30
2022-08-03T00:33:58.936Z,41.10
2022-08-03T00:36:27.671Z,40.80
2022-08-03T00:38:55.474Z,40.90
2022-08-03T00:41:24.213Z,41.00
2022-08-03T00:43:51.380Z,40.80
2022-08-03T00:46:21.813Z,40.80
2022-08-03T00:48:53.142Z,40.90
2022-08-03T00:51:21.782Z,41.00
2022-08-03T00:53:49.533Z,41.20
2022-08-03T00:56:17.185Z,41.30
2022-08-03T00:58:45.558Z,41.50
2022-08-03T01:01:13.032Z,41.50
2022-08-03T01:03:40.482Z,41.60
2022-08-03T01:06:31.840Z,41.50
2022-08-03T01:09:22.271Z,41.40
2022-08-03T01:12:14.715Z,41.40
2022-08-03T01:15:00.345Z,41.40
2022-08-03T01:18:01.101Z,41.40
2022-08-03T01:20:33.690Z,41.50
2022-08-03T01:23:24.672Z,41.50
2022-08-03T01:26:02.959Z,41.50
2022-08-03T01:28:56.552Z,41.50
2022-08-03T01:31:29.480Z,41.40
2022-08-03T01:34:02.717Z,41.40
2022-08-03T01:36:39.035Z,41.40
2022-08-03T01:39:09.596Z,41.40
2022-08-03T01:41:42.431Z,41.30
2022-08-03T01:44:27.947Z,41.30
2022-08-03T01:47:00.206Z,41.30
2022-08-03T01:49:30.260Z,41.40
2022-08-03T01:52:05.007Z,41.50
2022-08-03T01:54:45.840Z,41.60
2022-08-03T01:57:14.502Z,41.60
2022-08-03T01:59:43.339Z,41.60
2022-08-03T02:02:29.117Z,41.60
2022-08-03T02:05:03.347Z,41.60
2022-08-03T02:07:32.241Z,41.60
2022-08-03T02:10:00.417Z,41.50
2022-08-03T02:12:29.956Z,41.50
2022-08-03T02:15:00.109Z,41.60
2022-08-03T02:17:39.088Z,41.60
2022-08-03T02:20:12.191Z,41.60
2022-08-03T02:22:41.552Z,41.60
2022-08-03T02:25:12.919Z,41.60
2022-08-03T02:27:52.918Z,41.60
2022-08-03T02:30:24.245Z,41.60
2022-08-03T02:32:56.256Z,41.60
2022-08-03T02:35:26.534Z,41.50
2022-08-03T02:37:59.571Z,41.40
2022-08-03T02:40:29.600Z,41.60
2022-08-03T02:43:02.582Z,41.60
2022-08-03T02:45:33.187Z,41.60
2022-08-03T02:48:02.959Z,41.50
2022-08-03T02:50:33.711Z,41.30
2022-08-03T02:53:03.118Z,41.00
2022-08-03T02:55:31.828Z,40.90
2022-08-03T02:58:01.623Z,40.90
2022-08-03T03:00:30.167Z,40.80
2022-08-03T03:03:00.516Z,40.90
2022-08-03T03:05:55.965Z,41.00
2022-08-03T03:08:20.849Z,40.80
2022-08-03T03:10:55.897Z,40.80
2022-08-03T03:13:24.001Z,40.80
2022-08-03T03:15:52.554Z,40.50
2022-08-03T03:18:22.839Z,40.00
2022-08-03T03:20:54.165Z,40.30
2022-08-03T03:23:23.456Z,40.60
2022-08-03T03:25:51.543Z,40.60
2022-08-03T03:28:18.823Z,40.40
2022-08-03T03:30:52.624Z,40.40
2022-08-03T03:33:20.801Z,40.50
2022-08-03T03:35:48.580Z,40.70
2022-08-03T03:38:15.563Z,40.80
2022-08-03T03:40:42.716Z,41.10
2022-08-03T03:43:12.552Z,41.20
2022-08-03T03:45:43.148Z,41.30
2022-08-03T03:48:10.232Z,41.30
2022-08-03T03:50:41.062Z,41.40
2022-08-03T03:53:12.143Z,41.40
2022-08-03T03:55:59.019Z,41.40
2022-08-03T03:58:27.510Z,41.40
2022-08-03T04:00:54.559Z,41.50
2022-08-03T04:03:21.576Z,41.50
2022-08-03T04:06:07.408Z,41.60
2022-08-03T04:08:53.163Z,41.70
2022-08-03T04:11:30.387Z,41.90
2022-08-03T04:14:02.299Z,41.90
2022-08-03T04:16:39.735Z,41.90
2022-08-03T04:19:13.778Z,41.50
2022-08-03T04:21:46.882Z,41.30
2022-08-03T04:24:15.934Z,41.30
2022-08-03T04:26:48.457Z,41.20
2022-08-03T04:29:19.832Z,41.10
2022-08-03T04:31:48.625Z,41.20
2022-08-03T04:34:16.409Z,41.10
2022-08-03T04:36:49.577Z,41.10
2022-08-03T04:39:28.168Z,41.30
2022-08-03T04:42:08.277Z,41.40
2022-08-03T04:44:42.742Z,41.60
2022-08-03T04:47:09.890Z,41.80
2022-08-03T04:49:38.320Z,42.00
2022-08-03T04:52:08.769Z,42.20
2022-08-03T04:54:50.833Z,42.20
2022-08-03T04:57:22.134Z,42.30
2022-08-03T05:00:01.386Z,42.30
2022-08-03T05:02:30.523Z,42.50
2022-08-03T05:04:57.825Z,42.60
2022-08-03T05:07:25.351Z,42.80
2022-08-03T05:10:01.351Z,42.80
2022-08-03T05:12:32.721Z,42.90
2022-08-03T05:15:01.766Z,42.90
2022-08-03T05:17:29.113Z,42.80
2022-08-03T05:19:56.830Z,42.40
2022-08-03T05:22:24.413Z,42.60
2022-08-03T05:24:51.514Z,42.80
2022-08-03T05:27:21.397Z,42.80
2022-08-03T05:29:49.869Z,42.70
2022-08-03T05:32:17.886Z,42.30
2022-08-03T05:34:45.035Z,43.00
2022-08-03T05:37:12.963Z,43.30
2022-08-03T05:39:40.249Z,43.30
2022-08-03T05:42:07.400Z,43.80
2022-08-03T05:44:34.496Z,43.60
2022-08-03T05:47:01.663Z,44.00
2022-08-03T05:49:28.688Z,44.00
2022-08-03T05:52:00.243Z,44.10
2022-08-03T05:54:56.764Z,44.00
2022-08-03T05:57:25.895Z,44.00
2022-08-03T05:59:53.989Z,44.20
2022-08-03T06:02:28.617Z,43.90
2022-08-03T06:04:55.556Z,43.80
2022-08-03T06:07:22.691Z,43.70
2022-08-03T06:10:35.079Z,43.60
2022-08-03T06:12:36.836Z,43.70
2022-08-03T06:15:05.394Z,44.10
2022-08-03T06:17:37.196Z,44.20
2022-08-03T06:20:06.318Z,44.10
2022-08-03T06:22:33.395Z,44.40
2022-08-03T06:25:04.932Z,44.80
2022-08-03T06:27:37.624Z,45.30
2022-08-03T06:30:05.631Z,45.50
2022-08-03T06:32:34.014Z,45.50
2022-08-03T06:35:01.265Z,45.70
2022-08-03T06:37:28.937Z,45.80
2022-08-03T06:39:55.998Z,46.10
2022-08-03T06:42:22.992Z,46.20
2022-08-03T06:44:52.285Z,46.30
2022-08-03T06:47:19.450Z,46.50
2022-08-03T06:50:12.793Z,46.80
2022-08-03T06:52:37.426Z,46.80
2022-08-03T06:55:06.382Z,46.60
2022-08-03T06:57:33.369Z,46.50
2022-08-03T07:00:09.848Z,46.90
2022-08-03T07:02:40.063Z,46.80
2022-08-03T07:05:08.584Z,46.70
2022-08-03T07:07:35.622Z,46.80
2022-08-03T07:10:03.185Z,46.80
2022-08-03T07:12:31.028Z,46.70
2022-08-03T07:15:01.903Z,46.10
2022-08-03T07:17:31.423Z,45.80
2022-08-03T07:19:58.923Z,45.50
2022-08-03T07:22:26.157Z,45.80
2022-08-03T07:24:53.225Z,46.10
2022-08-03T07:27:20.172Z,46.10
2022-08-03T07:29:47.241Z,46.20
2022-08-03T07:32:14.302Z,46.70
2022-08-03T07:34:41.443Z,46.80
2022-08-03T07:37:08.420Z,47.40
2022-08-03T07:39:35.328Z,48.00
2022-08-03T07:42:02.278Z,48.20
2022-08-03T07:44:29.504Z,48.40
2022-08-03T07:46:57.356Z,48.70
2022-08-03T07:49:25.288Z,49.30
2022-08-03T07:52:12.330Z,49.60
2022-08-03T07:54:39.307Z,50.00
2022-08-03T07:57:06.424Z,50.00
2022-08-03T08:00:01.628Z,50.10
2022-08-03T08:02:22.310Z,50.30
2022-08-03T08:04:49.320Z,50.40
2022-08-03T08:07:16.409Z,50.90
2022-08-03T08:09:45.361Z,50.80
2022-08-03T08:12:15.506Z,51.20
2022-08-03T08:14:45.914Z,51.80
2022-08-03T08:17:14.127Z,51.30
2022-08-03T08:19:49.709Z,51.00
2022-08-03T08:22:22.400Z,50.50
2022-08-03T08:24:57.108Z,49.70
2022-08-03T08:27:24.157Z,49.30
2022-08-03T08:29:55.286Z,49.10
2022-08-03T08:32:23.766Z,48.90
2022-08-03T08:34:51.125Z,48.80
2022-08-03T08:37:18.346Z,48.60
2022-08-03T08:39:45.498Z,48.60
2022-08-03T08:42:12.695Z,48.60
2022-08-03T08:44:39.811Z,48.70
2022-08-03T08:47:09.451Z,48.40
2022-08-03T08:49:38.945Z,48.20
2022-08-03T08:52:25.130Z,48.50
2022-08-03T08:55:05.911Z,49.40
2022-08-03T08:57:46.739Z,49.40
2022-08-03T09:00:14.729Z,49.40
2022-08-03T09:02:43.568Z,49.20
2022-08-03T09:05:19.228Z,49.40
2022-08-03T09:07:47.969Z,49.10
2022-08-03T09:10:19.877Z,49.10
2022-08-03T09:12:49.544Z,49.40
2022-08-03T09:15:33.817Z,49.50
2022-08-03T09:18:03.147Z,49.70
2022-08-03T09:20:33.264Z,49.70
2022-08-03T09:23:24.703Z,49.70
2022-08-03T09:26:00.056Z,49.40
2022-08-03T09:28:59.917Z,49.20
2022-08-03T09:31:39.912Z,49.40
2022-08-03T09:34:13.129Z,49.40
2022-08-03T09:36:46.767Z,49.40
2022-08-03T09:39:21.754Z,49.90
2022-08-03T09:42:18.309Z,50.10
2022-08-03T09:44:47.734Z,50.30
2022-08-03T09:47:17.143Z,50.50
2022-08-03T09:49:59.151Z,50.10
2022-08-03T09:52:49.617Z,50.50
2022-08-03T09:56:32.722Z,50.40
2022-08-03T09:58:10.683Z,50.50
2022-08-03T10:00:55.408Z,50.90
2022-08-03T10:03:23.265Z,50.90
2022-08-03T10:05:50.321Z,51.30
2022-08-03T10:08:19.276Z,51.90
2022-08-03T10:10:48.343Z,51.40
2022-08-03T10:13:17.005Z,50.90
2022-08-03T10:16:23.486Z,50.90
2022-08-03T10:18:32.533Z,50.40
2022-08-03T10:21:10.439Z,50.50
2022-08-03T10:23:38.875Z,50.70
2022-08-03T10:26:08.333Z,50.90
2022-08-03T10:28:44.710Z,50.80
2022-08-03T10:31:14.318Z,50.90
2022-08-03T10:33:50.310Z,51.20
2022-08-03T10:36:23.070Z,50.90
2022-08-03T10:38:55.311Z,50.90
2022-08-03T10:41:26.064Z,50.90
2022-08-03T10:44:16.963Z,50.70
2022-08-03T10:46:45.687Z,51.50
2022-08-03T10:49:34.050Z,51.50
2022-08-03T10:52:10.374Z,51.40
2022-08-03T10:55:07.487Z,50.80
2022-08-03T10:57:58.547Z,51.00
2022-08-03T11:00:27.939Z,51.50
2022-08-03T11:03:06.628Z,51.90
2022-08-03T11:05:39.350Z,51.90
2022-08-03T11:08:30.623Z,52.40
2022-08-03T11:11:31.639Z,52.80
2022-08-03T11:14:05.942Z,53.20
2022-08-03T11:16:38.002Z,52.90
2022-08-03T11:19:28.236Z,52.80
2022-08-03T11:21:56.971Z,53.50
2022-08-03T11:24:47.438Z,53.70
2022-08-03T11:27:25.151Z,52.80
2022-08-03T11:30:14.835Z,51.80
2022-08-03T11:32:46.876Z,51.30
2022-08-03T11:35:29.184Z,51.20
2022-08-03T11:38:01.985Z,51.40
2022-08-03T11:40:48.080Z,52.20
2022-08-03T11:43:35.475Z,52.90
2022-08-03T11:46:28.452Z,52.90
2022-08-03T11:49:10.753Z,52.50
2022-08-03T11:51:40.450Z,52.30
2022-08-03T11:54:08.015Z,51.90
2022-08-03T11:56:51.119Z,52.00
2022-08-03T11:59:22.330Z,52.00
2022-08-03T12:01:50.458Z,51.30
2022-08-03T12:04:17.599Z,51.70
2022-08-03T12:07:02.248Z,51.70
2022-08-03T12:09:29.222Z,52.10
2022-08-03T12:12:00.561Z,52.40
2022-08-03T12:14:49.546Z,52.40
2022-08-03T12:17:17.181Z,52.10
2022-08-03T12:19:45.433Z,52.00
2022-08-03T12:22:12.482Z,51.90
2022-08-03T12:24:46.613Z,51.60
2022-08-03T12:27:28.203Z,51.90
2022-08-03T12:29:58.983Z,52.10
2022-08-03T12:32:30.019Z,52.60
2022-08-03T12:35:02.129Z,53.00
2022-08-03T12:37:29.857Z,52.60
2022-08-03T12:40:10.215Z,52.10
2022-08-03T12:42:38.995Z,51.70
2022-08-03T12:45:26.736Z,51.40
2022-08-03T12:47:55.397Z,51.30
2022-08-03T12:50:27.045Z,52.10
2022-08-03T12:52:54.634Z,52.30
2022-08-03T12:55:22.988Z,52.30
2022-08-03T12:57:50.268Z,52.30
2022-08-03T13:00:28.730Z,52.00
2022-08-03T13:03:38.504Z,52.40
2022-08-03T13:05:51.313Z,51.30
2022-08-03T13:08:23.325Z,50.90
2022-08-03T13:10:50.470Z,50.10
2022-08-03T13:13:17.701Z,49.90
2022-08-03T13:15:48.064Z,49.70
2022-08-03T13:18:17.222Z,50.10
2022-08-03T13:20:44.744Z,51.00
2022-08-03T13:23:21.915Z,51.00
2022-08-03T13:25:54.969Z,51.50
2022-08-03T13:28:23.194Z,52.30
2022-08-03T13:30:50.234Z,52.60
2022-08-03T13:33:17.709Z,52.90
2022-08-03T13:35:44.739Z,53.40
2022-08-03T13:38:11.992Z,53.60
2022-08-03T13:40:42.228Z,53.80
2022-08-03T13:43:09.539Z,53.10
2022-08-03T13:45:36.697Z,52.90
2022-08-03T13:48:05.688Z,52.10
2022-08-03T13:50:39.840Z,51.60
2022-08-03T13:53:09.931Z,50.70
2022-08-03T13:55:36.932Z,50.10
2022-08-03T13:58:07.447Z,50.50
2022-08-03T14:00:36.003Z,50.50
2022-08-03T14:03:10.771Z,50.30
2022-08-03T14:05:41.668Z,50.10
2022-08-03T14:08:09.040Z,50.70
2022-08-03T14:10:38.063Z,51.40
2022-08-03T14:13:06.179Z,51.40
2022-08-03T14:15:37.925Z,50.80
2022-08-03T14:18:06.580Z,50.60
2022-08-03T14:20:37.512Z,50.70
2022-08-03T14:23:07.270Z,50.50
2022-08-03T14:25:44.250Z,50.50
2022-08-03T14:28:19.090Z,51.50
2022-08-03T14:30:46.260Z,51.80
2022-08-03T14:33:13.249Z,51.40
2022-08-03T14:35:40.516Z,51.40
2022-08-03T14:38:07.564Z,51.80
2022-08-03T14:40:34.543Z,51.60
2022-08-03T14:43:02.631Z,51.50
2022-08-03T14:45:30.947Z,51.00
2022-08-03T14:50:33.982Z,50.80
2022-08-03T14:50:51.345Z,50.50
2022-08-03T14:53:19.840Z,50.30
2022-08-03T14:55:50.374Z,50.40
2022-08-03T14:58:21.415Z,50.40
2022-08-03T15:00:50.160Z,50.20
2022-08-03T15:03:20.592Z,49.60
2022-08-03T15:05:47.816Z,49.60
2022-08-03T15:08:15.027Z,49.40
2022-08-03T15:10:45.283Z,49.90
2022-08-03T15:13:13.671Z,49.90
2022-08-03T15:15:41.447Z,49.30
2022-08-03T15:18:09.252Z,48.70
2022-08-03T15:20:46.659Z,49.00
2022-08-03T15:23:17.161Z,49.60
2022-08-03T15:26:31.813Z,49.70
2022-08-03T15:28:33.109Z,49.70
2022-08-03T15:31:00.821Z,49.80
2022-08-03T15:33:28.620Z,49.60
2022-08-03T15:35:56.721Z,48.70
2022-08-03T15:38:26.555Z,47.30
2022-08-03T15:40:54.908Z,46.90
2022-08-03T15:43:23.294Z,46.40
2022-08-03T15:46:19.046Z,45.70
2022-08-03T15:48:37.444Z,45.40
2022-08-03T15:51:05.552Z,45.40
2022-08-03T15:53:33.741Z,45.40
2022-08-03T15:56:03.321Z,45.50
2022-08-03T15:59:04.294Z,45.70
2022-08-03T16:01:21.558Z,46.10
2022-08-03T16:03:48.719Z,46.00
2022-08-03T16:06:16.038Z,45.90
2022-08-03T16:08:43.164Z,46.00
2022-08-03T16:11:11.024Z,46.30
2022-08-03T16:14:13.612Z,46.70
2022-08-03T16:16:25.076Z,46.80
2022-08-03T16:18:52.501Z,47.10
2022-08-03T16:21:21.688Z,46.90
2022-08-03T16:23:50.173Z,47.20
2022-08-03T16:26:18.297Z,47.10
2022-08-03T16:28:45.340Z,47.10
2022-08-03T16:31:12.372Z,47.30
2022-08-03T16:33:40.358Z,47.50
2022-08-03T16:36:08.260Z,47.80
2022-08-03T16:38:35.341Z,47.90
2022-08-03T16:41:02.417Z,48.10
2022-08-03T16:43:29.403Z,48.20
2022-08-03T16:45:56.536Z,48.40
2022-08-03T16:48:23.532Z,48.50
2022-08-03T16:50:50.599Z,48.60
2022-08-03T16:53:18.736Z,48.60
2022-08-03T16:56:09.549Z,48.70
2022-08-03T16:58:42.504Z,48.70
2022-08-03T17:01:22.603Z,48.50
2022-08-03T17:04:03.556Z,48.50
2022-08-03T17:06:37.425Z,48.50
2022-08-03T17:09:10.392Z,48.50
2022-08-03T17:11:47.201Z,48.30
2022-08-03T17:14:21.973Z,48.30
2022-08-03T17:16:52.791Z,48.20
2022-08-03T17:19:26.476Z,47.80
2022-08-03T17:22:04.525Z,47.70
2022-08-03T17:24:37.089Z,47.70
2022-08-03T17:27:18.502Z,47.70
2022-08-03T17:30:07.764Z,47.60
2022-08-03T17:32:42.253Z,47.50
2022-08-03T17:35:10.758Z,47.20
2022-08-03T17:37:57.522Z,46.70
2022-08-03T17:40:25.588Z,46.50
2022-08-03T17:42:55.554Z,46.10
2022-08-03T17:45:23.751Z,46.40
2022-08-03T17:48:10.816Z,46.50
2022-08-03T17:51:21.054Z,46.50
2022-08-03T17:54:24.101Z,46.50
2022-08-03T17:57:01.321Z,46.20
2022-08-03T18:00:26.635Z,46.00
2022-08-03T18:03:32.477Z,45.80
2022-08-03T18:06:28.873Z,45.60
2022-08-03T18:10:03.668Z,45.40
2022-08-03T18:12:01.840Z,45.60
2022-08-03T18:14:59.200Z,45.60
2022-08-03T18:17:54.632Z,45.60
2022-08-03T18:20:33.157Z,45.90
2022-08-03T18:23:06.187Z,45.90
2022-08-03T18:25:45.213Z,45.90
2022-08-03T18:28:19.645Z,45.90
2022-08-03T18:30:54.513Z,45.80
2022-08-03T18:36:17.475Z,45.60
2022-08-03T18:38:47.597Z,45.60
2022-08-03T18:41:22.094Z,45.60
2022-08-03T18:44:06.825Z,45.50
2022-08-03T18:46:50.927Z,45.30
2022-08-03T18:49:36.714Z,45.30
2022-08-03T18:52:32.299Z,45.20
2022-08-03T18:55:20.670Z,45.10
2022-08-03T18:58:15.867Z,44.90
2022-08-03T19:01:15.261Z,44.60
2022-08-03T19:03:59.864Z,44.70
2022-08-03T19:06:30.053Z,44.70
2022-08-03T19:09:07.235Z,44.70
2022-08-03T19:12:14.304Z,44.90
2022-08-03T19:14:44.496Z,44.80
2022-08-03T19:17:14.504Z,44.60
2022-08-03T19:19:53.844Z,44.70
2022-08-03T19:22:22.171Z,44.70
2022-08-03T19:24:53.182Z,44.70
2022-08-03T19:27:20.950Z,44.80
2022-08-03T19:29:59.387Z,44.80
2022-08-03T19:32:30.397Z,44.70
2022-08-03T19:34:59.541Z,44.90
2022-08-03T19:37:38.305Z,44.90
2022-08-03T19:40:10.835Z,45.00
2022-08-03T19:42:42.639Z,44.90
2022-08-03T19:45:14.519Z,44.70
2022-08-03T19:48:09.867Z,44.60
2022-08-03T19:50:37.410Z,44.50
2022-08-03T19:53:13.221Z,44.60
2022-08-03T19:55:48.852Z,44.60
2022-08-03T19:58:17.799Z,44.50
2022-08-03T20:00:56.100Z,44.40
2022-08-03T20:03:23.428Z,44.50
2022-08-03T20:05:54.209Z,44.50
2022-08-03T20:08:22.747Z,44.50
2022-08-03T20:13:39.062Z,44.40
2022-08-03T20:16:06.937Z,44.40
2022-08-03T20:18:39.463Z,44.30
2022-08-03T20:21:14.747Z,44.30
2022-08-03T20:24:02.070Z,44.20
2022-08-03T20:26:33.684Z,44.20
2022-08-03T20:29:09.877Z,44.20
2022-08-03T20:31:37.741Z,44.20
2022-08-03T20:34:06.731Z,44.10
2022-08-03T20:36:33.870Z,43.90
2022-08-03T20:39:01.147Z,43.90
2022-08-03T20:41:35.712Z,44.10
2022-08-03T20:44:04.580Z,44.20
2022-08-03T20:46:41.683Z,44.20
2022-08-03T20:49:13.752Z,44.30
2022-08-03T20:51:49.647Z,44.30
2022-08-03T20:54:23.136Z,44.20
2022-08-03T20:56:58.277Z,44.20
2022-08-03T20:59:35.039Z,44.20
2022-08-03T21:02:19.962Z,44.20
2022-08-03T21:04:58.354Z,44.20
2022-08-03T21:07:45.664Z,44.30
2022-08-03T21:10:16.757Z,44.20
2022-08-03T21:13:04.350Z,45.80
2022-08-03T21:13:09.236Z,44.20
2022-08-03T21:13:16.843Z,44.20
2022-08-03T21:16:12.178Z,44.20
2022-08-03T21:18:43.329Z,44.20
2022-08-03T21:21:13.841Z,44.10
2022-08-03T21:23:48.640Z,44.20
2022-08-03T21:26:19.146Z,44.10
2022-08-03T21:28:50.878Z,44.10
2022-08-03T21:31:25.604Z,43.90
2022-08-03T21:33:58.407Z,43.80
2022-08-03T21:36:29.555Z,43.80
2022-08-03T21:38:57.833Z,43.90
2022-08-03T21:41:27.343Z,43.90
2022-08-03T21:43:54.507Z,43.70
2022-08-03T21:46:22.656Z,43.70
2022-08-03T21:50:07.621Z,43.80
2022-08-03T21:51:50.374Z,43.80
2022-08-03T21:54:20.233Z,43.90
2022-08-03T21:56:50.383Z,43.80
2022-08-03T21:59:19.896Z,43.60
2022-08-03T22:01:55.521Z,43.60
2022-08-03T22:04:50.593Z,43.50
2022-08-03T22:07:14.011Z,43.60
2022-08-03T22:09:51.065Z,43.60
2022-08-03T22:12:23.864Z,43.70
2022-08-03T22:15:01.346Z,43.80
2022-08-03T22:17:55.215Z,43.90
2022-08-03T22:20:19.468Z,43.90
2022-08-03T22:22:53.561Z,43.80
2022-08-03T22:25:29.045Z,43.60
2022-08-03T22:27:58.973Z,43.50
2022-08-03T22:30:25.959Z,43.50
2022-08-03T22:32:55.047Z,43.50
2022-08-03T22:35:24.196Z,43.50
2022-08-03T22:37:53.998Z,43.50
2022-08-03T22:40:21.786Z,43.70
2022-08-03T22:42:51.328Z,43.70
2022-08-03T22:46:07.818Z,43.60
2022-08-03T22:48:08.376Z,43.60
2022-08-03T22:50:35.578Z,43.70
2022-08-03T22:53:02.778Z,43.70
2022-08-03T22:55:29.783Z,43.80
2022-08-03T22:57:56.765Z,43.90
2022-08-03T23:00:24.642Z,43.80
2022-08-03T23:02:54.064Z,43.70
2022-08-03T23:06:00.958Z,43.70
2022-08-03T23:08:14.615Z,43.70
2022-08-03T23:10:46.827Z,43.70
2022-08-03T23:13:20.006Z,43.70
2022-08-03T23:15:55.886Z,43.50
2022-08-03T23:18:24.433Z,43.50
2022-08-03T23:20:58.677Z,43.50
2022-08-03T23:23:26.267Z,43.50
2022-08-03T23:25:53.369Z,43.40
2022-08-03T23:28:21.577Z,43.50
2022-08-03T23:30:51.014Z,43.40
2022-08-03T23:33:18.700Z,43.40
2022-08-03T23:36:20.005Z,43.40
2022-08-03T23:38:45.042Z,43.30
2022-08-03T23:41:13.637Z,43.30
2022-08-03T23:43:50.852Z,43.10
2022-08-03T23:46:21.140Z,43.00
2022-08-03T23:48:48.115Z,43.00
2022-08-03T23:51:41.046Z,43.00
2022-08-03T23:54:31.063Z,42.70
2022-08-03T23:57:00.868Z,42.70
2022-08-03T23:59:38.209Z,42.70
